sensor_id;sensor_type;location;lat;lon;timestamp;P1;durP1;ratioP1;P2;durP2;ratioP2
40154;SDS011;25875;48.202;16.334;2024-01-27T00:00:35;2.55;;;1.63;;
40154;SDS011;25875;48.202;16.334;2024-01-27T00:03:01;3.08;;;1.60;;
40154;SDS011;25875;48.202;16.334;2024-01-27T00:05:28;2.92;;;1.50;;
40154;SDS011;25875;48.202;16.334;2024-01-27T00:07:55;4.30;;;2.80;;
40154;SDS011;25875;48.202;16.334;2024-01-27T00:10:23;3.00;;;1.73;;
40154;SDS011;25875;48.202;16.334;2024-01-27T00:12:50;3.80;;;1.83;;
40154;SDS011;25875;48.202;16.334;2024-01-27T00:15:17;2.90;;;1.60;;
40154;SDS011;25875;48.202;16.334;2024-01-27T00:17:43;3.38;;;1.55;;
40154;SDS011;25875;48.202;16.334;2024-01-27T00:20:10;4.85;;;2.10;;
40154;SDS011;25875;48.202;16.334;2024-01-27T00:22:37;3.50;;;1.67;;
40154;SDS011;25875;48.202;16.334;2024-01-27T00:25:04;2.55;;;1.65;;
40154;SDS011;25875;48.202;16.334;2024-01-27T00:27:33;3.08;;;1.80;;
40154;SDS011;25875;48.202;16.334;2024-01-27T00:30:00;2.72;;;1.67;;
40154;SDS011;25875;48.202;16.334;2024-01-27T00:32:26;3.22;;;1.60;;
40154;SDS011;25875;48.202;16.334;2024-01-27T00:34:53;3.42;;;1.70;;
40154;SDS011;25875;48.202;16.334;2024-01-27T00:37:20;2.22;;;1.60;;
40154;SDS011;25875;48.202;16.334;2024-01-27T00:39:47;2.60;;;1.77;;
40154;SDS011;25875;48.202;16.334;2024-01-27T00:42:13;2.65;;;1.70;;
40154;SDS011;25875;48.202;16.334;2024-01-27T00:44:41;2.90;;;1.60;;
40154;SDS011;25875;48.202;16.334;2024-01-27T00:47:08;2.50;;;1.55;;
40154;SDS011;25875;48.202;16.334;2024-01-27T00:49:35;2.42;;;1.60;;
40154;SDS011;25875;48.202;16.334;2024-01-27T00:52:01;2.42;;;1.58;;
40154;SDS011;25875;48.202;16.334;2024-01-27T00:54:28;2.60;;;1.60;;
40154;SDS011;25875;48.202;16.334;2024-01-27T00:56:55;2.20;;;1.60;;
40154;SDS011;25875;48.202;16.334;2024-01-27T00:59:21;2.47;;;1.70;;
40154;SDS011;25875;48.202;16.334;2024-01-27T01:01:49;2.63;;;1.60;;
40154;SDS011;25875;48.202;16.334;2024-01-27T01:04:16;2.67;;;2.00;;
40154;SDS011;25875;48.202;16.334;2024-01-27T01:06:43;3.58;;;2.53;;
40154;SDS011;25875;48.202;16.334;2024-01-27T01:09:09;3.08;;;2.00;;
40154;SDS011;25875;48.202;16.334;2024-01-27T01:11:36;2.88;;;1.98;;
40154;SDS011;25875;48.202;16.334;2024-01-27T01:14:03;2.63;;;1.70;;
40154;SDS011;25875;48.202;16.334;2024-01-27T01:16:30;2.67;;;1.77;;
40154;SDS011;25875;48.202;16.334;2024-01-27T01:18:58;2.90;;;1.90;;
40154;SDS011;25875;48.202;16.334;2024-01-27T01:21:24;3.65;;;1.90;;
40154;SDS011;25875;48.202;16.334;2024-01-27T01:23:51;3.30;;;1.77;;
40154;SDS011;25875;48.202;16.334;2024-01-27T01:26:18;3.08;;;1.80;;
40154;SDS011;25875;48.202;16.334;2024-01-27T01:28:45;4.50;;;2.15;;
40154;SDS011;25875;48.202;16.334;2024-01-27T01:31:11;2.80;;;1.98;;
40154;SDS011;25875;48.202;16.334;2024-01-27T01:33:38;3.60;;;1.70;;
40154;SDS011;25875;48.202;16.334;2024-01-27T01:36:06;4.75;;;2.53;;
40154;SDS011;25875;48.202;16.334;2024-01-27T01:38:33;3.78;;;2.47;;
40154;SDS011;25875;48.202;16.334;2024-01-27T01:41:00;5.85;;;2.00;;
40154;SDS011;25875;48.202;16.334;2024-01-27T01:43:26;3.13;;;2.00;;
40154;SDS011;25875;48.202;16.334;2024-01-27T01:45:53;2.70;;;1.77;;
40154;SDS011;25875;48.202;16.334;2024-01-27T01:48:20;3.97;;;1.90;;
40154;SDS011;25875;48.202;16.334;2024-01-27T01:50:47;2.67;;;2.03;;
40154;SDS011;25875;48.202;16.334;2024-01-27T01:53:15;3.85;;;1.90;;
40154;SDS011;25875;48.202;16.334;2024-01-27T01:55:42;4.22;;;2.25;;
40154;SDS011;25875;48.202;16.334;2024-01-27T01:58:09;2.97;;;2.03;;
40154;SDS011;25875;48.202;16.334;2024-01-27T02:00:35;2.63;;;1.83;;
40154;SDS011;25875;48.202;16.334;2024-01-27T02:03:02;3.03;;;1.90;;
40154;SDS011;25875;48.202;16.334;2024-01-27T02:05:30;2.75;;;2.10;;
40154;SDS011;25875;48.202;16.334;2024-01-27T02:07:57;2.63;;;1.98;;
40154;SDS011;25875;48.202;16.334;2024-01-27T02:10:27;2.65;;;1.77;;
40154;SDS011;25875;48.202;16.334;2024-01-27T02:13:01;3.70;;;2.00;;
40154;SDS011;25875;48.202;16.334;2024-01-27T02:15:27;2.85;;;2.10;;
40154;SDS011;25875;48.202;16.334;2024-01-27T02:17:54;3.97;;;1.90;;
40154;SDS011;25875;48.202;16.334;2024-01-27T02:20:21;4.40;;;2.13;;
40154;SDS011;25875;48.202;16.334;2024-01-27T02:22:47;3.13;;;2.17;;
40154;SDS011;25875;48.202;16.334;2024-01-27T02:25:15;3.67;;;2.17;;
40154;SDS011;25875;48.202;16.334;2024-01-27T02:27:42;3.55;;;2.28;;
40154;SDS011;25875;48.202;16.334;2024-01-27T02:30:09;2.97;;;2.00;;
40154;SDS011;25875;48.202;16.334;2024-01-27T02:32:36;3.13;;;2.20;;
40154;SDS011;25875;48.202;16.334;2024-01-27T02:35:02;6.25;;;2.25;;
40154;SDS011;25875;48.202;16.334;2024-01-27T02:37:29;3.00;;;2.63;;
40154;SDS011;25875;48.202;16.334;2024-01-27T02:39:56;3.42;;;2.10;;
40154;SDS011;25875;48.202;16.334;2024-01-27T02:42:24;2.85;;;2.22;;
40154;SDS011;25875;48.202;16.334;2024-01-27T02:44:51;3.97;;;2.50;;
40154;SDS011;25875;48.202;16.334;2024-01-27T02:47:17;3.28;;;2.10;;
40154;SDS011;25875;48.202;16.334;2024-01-27T02:49:44;3.03;;;2.10;;
40154;SDS011;25875;48.202;16.334;2024-01-27T02:52:11;3.00;;;2.00;;
40154;SDS011;25875;48.202;16.334;2024-01-27T02:54:39;5.50;;;2.40;;
40154;SDS011;25875;48.202;16.334;2024-01-27T02:57:05;3.40;;;2.00;;
40154;SDS011;25875;48.202;16.334;2024-01-27T02:59:33;3.40;;;2.05;;
40154;SDS011;25875;48.202;16.334;2024-01-27T03:02:00;4.28;;;2.10;;
40154;SDS011;25875;48.202;16.334;2024-01-27T03:04:27;3.00;;;1.92;;
40154;SDS011;25875;48.202;16.334;2024-01-27T03:06:53;3.42;;;2.35;;
40154;SDS011;25875;48.202;16.334;2024-01-27T03:09:20;5.00;;;2.35;;
40154;SDS011;25875;48.202;16.334;2024-01-27T03:11:47;2.63;;;1.85;;
40154;SDS011;25875;48.202;16.334;2024-01-27T03:14:13;2.70;;;2.03;;
40154;SDS011;25875;48.202;16.334;2024-01-27T03:16:43;4.60;;;2.40;;
40154;SDS011;25875;48.202;16.334;2024-01-27T03:19:10;3.78;;;2.33;;
40154;SDS011;25875;48.202;16.334;2024-01-27T03:21:36;3.85;;;2.60;;
40154;SDS011;25875;48.202;16.334;2024-01-27T03:24:03;4.00;;;2.60;;
40154;SDS011;25875;48.202;16.334;2024-01-27T03:26:30;6.70;;;2.35;;
40154;SDS011;25875;48.202;16.334;2024-01-27T03:28:57;2.80;;;2.20;;
40154;SDS011;25875;48.202;16.334;2024-01-27T03:31:29;3.75;;;2.55;;
40154;SDS011;25875;48.202;16.334;2024-01-27T03:33:57;3.15;;;2.40;;
40154;SDS011;25875;48.202;16.334;2024-01-27T03:36:24;5.07;;;2.42;;
40154;SDS011;25875;48.202;16.334;2024-01-27T03:38:51;3.58;;;2.30;;
40154;SDS011;25875;48.202;16.334;2024-01-27T03:41:17;3.83;;;2.50;;
40154;SDS011;25875;48.202;16.334;2024-01-27T03:43:44;6.53;;;2.80;;
40154;SDS011;25875;48.202;16.334;2024-01-27T03:46:10;4.57;;;2.88;;
40154;SDS011;25875;48.202;16.334;2024-01-27T03:48:37;4.90;;;2.90;;
40154;SDS011;25875;48.202;16.334;2024-01-27T03:51:05;4.57;;;2.67;;
40154;SDS011;25875;48.202;16.334;2024-01-27T03:53:32;3.17;;;2.47;;
40154;SDS011;25875;48.202;16.334;2024-01-27T03:55:59;5.13;;;3.38;;
40154;SDS011;25875;48.202;16.334;2024-01-27T03:58:27;3.63;;;2.83;;
40154;SDS011;25875;48.202;16.334;2024-01-27T04:00:54;4.20;;;2.55;;
40154;SDS011;25875;48.202;16.334;2024-01-27T04:03:22;5.03;;;3.03;;
40154;SDS011;25875;48.202;16.334;2024-01-27T04:05:49;5.72;;;2.63;;
40154;SDS011;25875;48.202;16.334;2024-01-27T04:08:17;3.72;;;2.50;;
40154;SDS011;25875;48.202;16.334;2024-01-27T04:10:44;5.38;;;2.80;;
40154;SDS011;25875;48.202;16.334;2024-01-27T04:13:10;5.38;;;2.53;;
40154;SDS011;25875;48.202;16.334;2024-01-27T04:15:37;4.93;;;2.58;;
40154;SDS011;25875;48.202;16.334;2024-01-27T04:18:04;4.30;;;2.50;;
40154;SDS011;25875;48.202;16.334;2024-01-27T04:20:33;4.35;;;2.53;;
40154;SDS011;25875;48.202;16.334;2024-01-27T04:22:59;3.55;;;2.53;;
40154;SDS011;25875;48.202;16.334;2024-01-27T04:25:27;4.05;;;2.50;;
40154;SDS011;25875;48.202;16.334;2024-01-27T04:27:54;5.05;;;2.80;;
40154;SDS011;25875;48.202;16.334;2024-01-27T04:30:21;5.25;;;3.10;;
40154;SDS011;25875;48.202;16.334;2024-01-27T04:32:48;3.65;;;2.72;;
40154;SDS011;25875;48.202;16.334;2024-01-27T04:35:17;3.95;;;2.72;;
40154;SDS011;25875;48.202;16.334;2024-01-27T04:37:43;4.78;;;2.67;;
40154;SDS011;25875;48.202;16.334;2024-01-27T04:40:11;3.80;;;2.50;;
40154;SDS011;25875;48.202;16.334;2024-01-27T04:42:40;4.97;;;2.78;;
40154;SDS011;25875;48.202;16.334;2024-01-27T04:45:07;5.10;;;3.47;;
40154;SDS011;25875;48.202;16.334;2024-01-27T04:47:35;3.72;;;2.65;;
40154;SDS011;25875;48.202;16.334;2024-01-27T04:50:01;5.40;;;2.67;;
40154;SDS011;25875;48.202;16.334;2024-01-27T04:52:28;5.72;;;3.58;;
40154;SDS011;25875;48.202;16.334;2024-01-27T04:54:55;4.45;;;2.90;;
40154;SDS011;25875;48.202;16.334;2024-01-27T04:57:22;5.22;;;2.88;;
40154;SDS011;25875;48.202;16.334;2024-01-27T04:59:49;5.78;;;3.10;;
40154;SDS011;25875;48.202;16.334;2024-01-27T05:02:17;3.83;;;2.58;;
40154;SDS011;25875;48.202;16.334;2024-01-27T05:04:44;3.78;;;2.70;;
40154;SDS011;25875;48.202;16.334;2024-01-27T05:07:10;4.43;;;2.90;;
40154;SDS011;25875;48.202;16.334;2024-01-27T05:09:37;4.68;;;2.60;;
40154;SDS011;25875;48.202;16.334;2024-01-27T05:12:04;3.97;;;2.50;;
40154;SDS011;25875;48.202;16.334;2024-01-27T05:14:31;5.63;;;3.15;;
40154;SDS011;25875;48.202;16.334;2024-01-27T05:16:59;4.28;;;3.03;;
40154;SDS011;25875;48.202;16.334;2024-01-27T05:19:25;4.22;;;2.65;;
40154;SDS011;25875;48.202;16.334;2024-01-27T05:21:52;5.18;;;2.80;;
40154;SDS011;25875;48.202;16.334;2024-01-27T05:24:19;4.40;;;2.58;;
40154;SDS011;25875;48.202;16.334;2024-01-27T05:26:45;3.83;;;2.65;;
40154;SDS011;25875;48.202;16.334;2024-01-27T05:29:12;6.28;;;2.65;;
40154;SDS011;25875;48.202;16.334;2024-01-27T05:31:39;5.38;;;2.85;;
40154;SDS011;25875;48.202;16.334;2024-01-27T05:34:09;3.47;;;2.90;;
40154;SDS011;25875;48.202;16.334;2024-01-27T05:36:36;5.78;;;3.10;;
40154;SDS011;25875;48.202;16.334;2024-01-27T05:39:03;5.97;;;3.15;;
40154;SDS011;25875;48.202;16.334;2024-01-27T05:41:30;5.13;;;2.80;;
40154;SDS011;25875;48.202;16.334;2024-01-27T05:43:56;4.00;;;2.85;;
40154;SDS011;25875;48.202;16.334;2024-01-27T05:46:22;5.28;;;3.08;;
40154;SDS011;25875;48.202;16.334;2024-01-27T05:48:50;5.68;;;3.30;;
40154;SDS011;25875;48.202;16.334;2024-01-27T05:51:20;4.90;;;3.28;;
40154;SDS011;25875;48.202;16.334;2024-01-27T05:53:48;4.53;;;2.88;;
40154;SDS011;25875;48.202;16.334;2024-01-27T05:56:14;4.47;;;2.95;;
40154;SDS011;25875;48.202;16.334;2024-01-27T05:58:41;3.08;;;2.45;;
40154;SDS011;25875;48.202;16.334;2024-01-27T06:01:08;5.95;;;2.90;;
40154;SDS011;25875;48.202;16.334;2024-01-27T06:03:34;4.63;;;2.50;;
40154;SDS011;25875;48.202;16.334;2024-01-27T06:06:01;4.57;;;2.90;;
40154;SDS011;25875;48.202;16.334;2024-01-27T06:08:29;8.05;;;3.55;;
40154;SDS011;25875;48.202;16.334;2024-01-27T06:10:56;4.38;;;3.05;;
40154;SDS011;25875;48.202;16.334;2024-01-27T06:13:22;5.30;;;2.90;;
40154;SDS011;25875;48.202;16.334;2024-01-27T06:15:49;5.03;;;3.00;;
40154;SDS011;25875;48.202;16.334;2024-01-27T06:18:16;5.28;;;2.53;;
40154;SDS011;25875;48.202;16.334;2024-01-27T06:20:43;5.55;;;2.85;;
40154;SDS011;25875;48.202;16.334;2024-01-27T06:23:10;6.35;;;3.08;;
40154;SDS011;25875;48.202;16.334;2024-01-27T06:25:38;5.38;;;3.45;;
40154;SDS011;25875;48.202;16.334;2024-01-27T06:28:05;4.53;;;2.80;;
40154;SDS011;25875;48.202;16.334;2024-01-27T06:30:31;3.83;;;3.17;;
40154;SDS011;25875;48.202;16.334;2024-01-27T06:32:58;6.55;;;3.60;;
40154;SDS011;25875;48.202;16.334;2024-01-27T06:35:25;5.18;;;3.28;;
40154;SDS011;25875;48.202;16.334;2024-01-27T06:37:51;5.15;;;3.28;;
40154;SDS011;25875;48.202;16.334;2024-01-27T06:40:18;4.82;;;3.20;;
40154;SDS011;25875;48.202;16.334;2024-01-27T06:42:46;5.35;;;2.80;;
40154;SDS011;25875;48.202;16.334;2024-01-27T06:45:13;7.35;;;3.28;;
40154;SDS011;25875;48.202;16.334;2024-01-27T06:47:39;5.43;;;3.25;;
40154;SDS011;25875;48.202;16.334;2024-01-27T06:50:06;4.20;;;2.92;;
40154;SDS011;25875;48.202;16.334;2024-01-27T06:52:34;5.43;;;3.22;;
40154;SDS011;25875;48.202;16.334;2024-01-27T06:55:00;4.38;;;3.00;;
40154;SDS011;25875;48.202;16.334;2024-01-27T06:57:27;4.70;;;3.17;;
40154;SDS011;25875;48.202;16.334;2024-01-27T06:59:55;7.07;;;3.80;;
40154;SDS011;25875;48.202;16.334;2024-01-27T07:02:22;4.68;;;2.83;;
40154;SDS011;25875;48.202;16.334;2024-01-27T07:04:49;6.47;;;3.22;;
40154;SDS011;25875;48.202;16.334;2024-01-27T07:07:15;4.63;;;3.00;;
40154;SDS011;25875;48.202;16.334;2024-01-27T07:09:42;6.13;;;3.00;;
40154;SDS011;25875;48.202;16.334;2024-01-27T07:12:09;4.95;;;3.45;;
40154;SDS011;25875;48.202;16.334;2024-01-27T07:14:35;5.63;;;3.33;;
40154;SDS011;25875;48.202;16.334;2024-01-27T07:17:04;7.70;;;3.30;;
40154;SDS011;25875;48.202;16.334;2024-01-27T07:19:30;7.43;;;3.40;;
40154;SDS011;25875;48.202;16.334;2024-01-27T07:21:57;6.00;;;3.33;;
40154;SDS011;25875;48.202;16.334;2024-01-27T07:24:25;7.20;;;3.88;;
40154;SDS011;25875;48.202;16.334;2024-01-27T07:26:51;6.20;;;3.15;;
40154;SDS011;25875;48.202;16.334;2024-01-27T07:29:18;4.97;;;3.50;;
40154;SDS011;25875;48.202;16.334;2024-01-27T07:31:45;4.32;;;3.60;;
40154;SDS011;25875;48.202;16.334;2024-01-27T07:34:13;6.78;;;3.00;;
40154;SDS011;25875;48.202;16.334;2024-01-27T07:36:40;7.00;;;3.55;;
40154;SDS011;25875;48.202;16.334;2024-01-27T07:39:07;6.72;;;2.95;;
40154;SDS011;25875;48.202;16.334;2024-01-27T07:41:33;5.22;;;3.50;;
40154;SDS011;25875;48.202;16.334;2024-01-27T07:44:06;6.53;;;3.33;;
40154;SDS011;25875;48.202;16.334;2024-01-27T07:46:34;5.28;;;3.40;;
40154;SDS011;25875;48.202;16.334;2024-01-27T07:49:01;9.38;;;3.78;;
40154;SDS011;25875;48.202;16.334;2024-01-27T07:51:29;5.53;;;3.33;;
40154;SDS011;25875;48.202;16.334;2024-01-27T07:53:56;5.47;;;3.45;;
40154;SDS011;25875;48.202;16.334;2024-01-27T07:56:22;4.60;;;3.15;;
40154;SDS011;25875;48.202;16.334;2024-01-27T07:58:49;5.20;;;2.88;;
40154;SDS011;25875;48.202;16.334;2024-01-27T08:01:16;5.00;;;3.13;;
40154;SDS011;25875;48.202;16.334;2024-01-27T08:03:43;4.22;;;3.10;;
40154;SDS011;25875;48.202;16.334;2024-01-27T08:06:14;4.63;;;3.88;;
40154;SDS011;25875;48.202;16.334;2024-01-27T08:08:44;5.20;;;3.63;;
40154;SDS011;25875;48.202;16.334;2024-01-27T08:11:12;6.40;;;3.90;;
40154;SDS011;25875;48.202;16.334;2024-01-27T08:13:38;5.93;;;3.95;;
40154;SDS011;25875;48.202;16.334;2024-01-27T08:16:05;4.70;;;2.88;;
40154;SDS011;25875;48.202;16.334;2024-01-27T08:18:34;5.35;;;3.15;;
40154;SDS011;25875;48.202;16.334;2024-01-27T08:21:01;5.40;;;3.60;;
40154;SDS011;25875;48.202;16.334;2024-01-27T08:23:28;5.20;;;3.58;;
40154;SDS011;25875;48.202;16.334;2024-01-27T08:25:56;5.53;;;3.25;;
40154;SDS011;25875;48.202;16.334;2024-01-27T08:28:23;6.15;;;3.15;;
40154;SDS011;25875;48.202;16.334;2024-01-27T08:30:50;7.70;;;4.38;;
40154;SDS011;25875;48.202;16.334;2024-01-27T08:33:17;7.88;;;3.67;;
40154;SDS011;25875;48.202;16.334;2024-01-27T08:35:45;4.88;;;3.47;;
40154;SDS011;25875;48.202;16.334;2024-01-27T08:38:12;5.97;;;3.47;;
40154;SDS011;25875;48.202;16.334;2024-01-27T08:40:39;6.10;;;3.28;;
40154;SDS011;25875;48.202;16.334;2024-01-27T08:43:07;6.97;;;3.60;;
40154;SDS011;25875;48.202;16.334;2024-01-27T08:45:35;4.07;;;3.03;;
40154;SDS011;25875;48.202;16.334;2024-01-27T08:48:02;4.60;;;2.70;;
40154;SDS011;25875;48.202;16.334;2024-01-27T08:50:29;5.72;;;3.65;;
40154;SDS011;25875;48.202;16.334;2024-01-27T08:52:56;4.97;;;3.10;;
40154;SDS011;25875;48.202;16.334;2024-01-27T08:55:22;5.07;;;3.17;;
40154;SDS011;25875;48.202;16.334;2024-01-27T08:57:49;5.60;;;2.92;;
40154;SDS011;25875;48.202;16.334;2024-01-27T09:00:18;6.13;;;3.67;;
40154;SDS011;25875;48.202;16.334;2024-01-27T09:02:45;5.03;;;3.35;;
40154;SDS011;25875;48.202;16.334;2024-01-27T09:05:12;5.63;;;3.08;;
40154;SDS011;25875;48.202;16.334;2024-01-27T09:07:39;4.60;;;3.10;;
40154;SDS011;25875;48.202;16.334;2024-01-27T09:10:06;6.63;;;3.25;;
40154;SDS011;25875;48.202;16.334;2024-01-27T09:12:37;7.25;;;4.07;;
40154;SDS011;25875;48.202;16.334;2024-01-27T09:15:04;6.03;;;3.33;;
40154;SDS011;25875;48.202;16.334;2024-01-27T09:17:34;7.93;;;4.50;;
40154;SDS011;25875;48.202;16.334;2024-01-27T09:20:01;4.65;;;2.80;;
40154;SDS011;25875;48.202;16.334;2024-01-27T09:22:27;7.10;;;3.00;;
40154;SDS011;25875;48.202;16.334;2024-01-27T09:24:55;7.55;;;4.38;;
40154;SDS011;25875;48.202;16.334;2024-01-27T09:27:22;5.80;;;3.42;;
40154;SDS011;25875;48.202;16.334;2024-01-27T09:29:49;6.03;;;3.50;;
40154;SDS011;25875;48.202;16.334;2024-01-27T09:32:16;6.05;;;3.70;;
40154;SDS011;25875;48.202;16.334;2024-01-27T09:34:44;8.13;;;4.55;;
40154;SDS011;25875;48.202;16.334;2024-01-27T09:37:10;8.30;;;4.13;;
40154;SDS011;25875;48.202;16.334;2024-01-27T09:39:38;7.47;;;3.40;;
40154;SDS011;25875;48.202;16.334;2024-01-27T09:42:06;6.35;;;3.53;;
40154;SDS011;25875;48.202;16.334;2024-01-27T09:44:34;6.63;;;4.13;;
40154;SDS011;25875;48.202;16.334;2024-01-27T09:47:01;8.00;;;4.10;;
40154;SDS011;25875;48.202;16.334;2024-01-27T09:49:28;7.25;;;3.90;;
40154;SDS011;25875;48.202;16.334;2024-01-27T09:51:58;6.38;;;4.28;;
40154;SDS011;25875;48.202;16.334;2024-01-27T09:54:25;7.28;;;3.30;;
40154;SDS011;25875;48.202;16.334;2024-01-27T09:56:52;5.43;;;4.05;;
40154;SDS011;25875;48.202;16.334;2024-01-27T09:59:21;7.82;;;4.20;;
40154;SDS011;25875;48.202;16.334;2024-01-27T10:01:49;8.52;;;3.50;;
40154;SDS011;25875;48.202;16.334;2024-01-27T10:04:17;5.95;;;3.83;;
40154;SDS011;25875;48.202;16.334;2024-01-27T10:06:45;4.90;;;3.25;;
40154;SDS011;25875;48.202;16.334;2024-01-27T10:09:14;8.65;;;3.65;;
40154;SDS011;25875;48.202;16.334;2024-01-27T10:11:43;5.20;;;3.55;;
40154;SDS011;25875;48.202;16.334;2024-01-27T10:14:13;8.25;;;4.32;;
40154;SDS011;25875;48.202;16.334;2024-01-27T10:16:41;6.10;;;4.00;;
40154;SDS011;25875;48.202;16.334;2024-01-27T10:19:11;5.85;;;3.95;;
40154;SDS011;25875;48.202;16.334;2024-01-27T10:21:41;7.90;;;4.10;;
40154;SDS011;25875;48.202;16.334;2024-01-27T10:24:08;5.68;;;3.28;;
40154;SDS011;25875;48.202;16.334;2024-01-27T10:26:36;5.85;;;3.30;;
40154;SDS011;25875;48.202;16.334;2024-01-27T10:29:02;5.07;;;3.00;;
40154;SDS011;25875;48.202;16.334;2024-01-27T10:31:30;6.43;;;3.72;;
40154;SDS011;25875;48.202;16.334;2024-01-27T10:33:57;5.47;;;3.38;;
40154;SDS011;25875;48.202;16.334;2024-01-27T10:36:26;7.45;;;3.47;;
40154;SDS011;25875;48.202;16.334;2024-01-27T10:39:13;5.68;;;3.00;;
40154;SDS011;25875;48.202;16.334;2024-01-27T10:41:42;4.45;;;3.10;;
40154;SDS011;25875;48.202;16.334;2024-01-27T10:44:11;5.55;;;3.00;;
40154;SDS011;25875;48.202;16.334;2024-01-27T10:46:40;9.18;;;4.20;;
40154;SDS011;25875;48.202;16.334;2024-01-27T10:49:10;6.68;;;4.60;;
40154;SDS011;25875;48.202;16.334;2024-01-27T10:51:40;5.95;;;3.65;;
40154;SDS011;25875;48.202;16.334;2024-01-27T10:54:13;6.53;;;3.65;;
40154;SDS011;25875;48.202;16.334;2024-01-27T10:56:43;7.55;;;3.55;;
40154;SDS011;25875;48.202;16.334;2024-01-27T10:59:13;8.35;;;4.57;;
40154;SDS011;25875;48.202;16.334;2024-01-27T11:01:41;6.45;;;4.78;;
40154;SDS011;25875;48.202;16.334;2024-01-27T11:04:10;5.57;;;3.97;;
40154;SDS011;25875;48.202;16.334;2024-01-27T11:06:39;5.45;;;3.33;;
40154;SDS011;25875;48.202;16.334;2024-01-27T11:09:08;5.88;;;3.60;;
40154;SDS011;25875;48.202;16.334;2024-01-27T11:11:36;5.20;;;2.92;;
40154;SDS011;25875;48.202;16.334;2024-01-27T11:14:06;6.65;;;3.08;;
40154;SDS011;25875;48.202;16.334;2024-01-27T11:16:34;5.97;;;3.88;;
40154;SDS011;25875;48.202;16.334;2024-01-27T11:19:03;7.22;;;4.30;;
40154;SDS011;25875;48.202;16.334;2024-01-27T11:21:31;8.52;;;4.38;;
40154;SDS011;25875;48.202;16.334;2024-01-27T11:23:57;7.25;;;5.00;;
40154;SDS011;25875;48.202;16.334;2024-01-27T11:26:24;6.97;;;3.50;;
40154;SDS011;25875;48.202;16.334;2024-01-27T11:28:51;7.68;;;4.07;;
40154;SDS011;25875;48.202;16.334;2024-01-27T11:31:19;6.38;;;3.78;;
40154;SDS011;25875;48.202;16.334;2024-01-27T11:33:47;6.93;;;3.22;;
40154;SDS011;25875;48.202;16.334;2024-01-27T11:36:20;9.27;;;3.88;;
40154;SDS011;25875;48.202;16.334;2024-01-27T11:38:48;5.60;;;3.70;;
40154;SDS011;25875;48.202;16.334;2024-01-27T11:41:23;6.82;;;3.05;;
40154;SDS011;25875;48.202;16.334;2024-01-27T11:43:54;10.52;;;3.10;;
40154;SDS011;25875;48.202;16.334;2024-01-27T11:46:22;4.70;;;3.20;;
40154;SDS011;25875;48.202;16.334;2024-01-27T11:48:49;6.97;;;3.13;;
40154;SDS011;25875;48.202;16.334;2024-01-27T11:51:17;6.18;;;3.45;;
40154;SDS011;25875;48.202;16.334;2024-01-27T11:53:44;6.60;;;3.60;;
40154;SDS011;25875;48.202;16.334;2024-01-27T11:56:11;4.95;;;3.20;;
40154;SDS011;25875;48.202;16.334;2024-01-27T11:58:38;4.78;;;3.20;;
40154;SDS011;25875;48.202;16.334;2024-01-27T12:01:12;4.90;;;3.33;;
40154;SDS011;25875;48.202;16.334;2024-01-27T12:03:41;6.00;;;3.58;;
40154;SDS011;25875;48.202;16.334;2024-01-27T12:06:08;4.35;;;2.97;;
40154;SDS011;25875;48.202;16.334;2024-01-27T12:08:35;5.60;;;3.15;;
40154;SDS011;25875;48.202;16.334;2024-01-27T12:11:02;6.38;;;3.70;;
40154;SDS011;25875;48.202;16.334;2024-01-27T12:13:29;4.72;;;3.03;;
40154;SDS011;25875;48.202;16.334;2024-01-27T12:15:55;6.55;;;3.90;;
40154;SDS011;25875;48.202;16.334;2024-01-27T12:18:22;9.40;;;4.32;;
40154;SDS011;25875;48.202;16.334;2024-01-27T12:20:55;6.40;;;3.40;;
40154;SDS011;25875;48.202;16.334;2024-01-27T12:23:22;5.97;;;3.60;;
40154;SDS011;25875;48.202;16.334;2024-01-27T12:25:52;7.20;;;4.35;;
40154;SDS011;25875;48.202;16.334;2024-01-27T12:28:19;5.63;;;3.58;;
40154;SDS011;25875;48.202;16.334;2024-01-27T12:30:46;6.07;;;3.30;;
40154;SDS011;25875;48.202;16.334;2024-01-27T12:33:13;7.00;;;3.75;;
40154;SDS011;25875;48.202;16.334;2024-01-27T12:35:40;9.05;;;4.05;;
40154;SDS011;25875;48.202;16.334;2024-01-27T12:38:08;7.80;;;3.55;;
40154;SDS011;25875;48.202;16.334;2024-01-27T12:40:37;6.45;;;2.95;;
40154;SDS011;25875;48.202;16.334;2024-01-27T12:43:04;6.72;;;3.60;;
40154;SDS011;25875;48.202;16.334;2024-01-27T12:45:31;6.90;;;4.10;;
40154;SDS011;25875;48.202;16.334;2024-01-27T12:48:00;4.90;;;3.28;;
40154;SDS011;25875;48.202;16.334;2024-01-27T12:50:27;5.07;;;3.05;;
40154;SDS011;25875;48.202;16.334;2024-01-27T12:52:55;8.93;;;3.80;;
40154;SDS011;25875;48.202;16.334;2024-01-27T12:55:23;6.38;;;3.35;;
40154;SDS011;25875;48.202;16.334;2024-01-27T12:57:50;4.35;;;2.92;;
40154;SDS011;25875;48.202;16.334;2024-01-27T13:00:17;6.00;;;3.33;;
40154;SDS011;25875;48.202;16.334;2024-01-27T13:02:44;8.77;;;4.25;;
40154;SDS011;25875;48.202;16.334;2024-01-27T13:05:11;7.07;;;3.25;;
40154;SDS011;25875;48.202;16.334;2024-01-27T13:07:38;6.22;;;3.08;;
40154;SDS011;25875;48.202;16.334;2024-01-27T13:10:05;4.45;;;3.30;;
40154;SDS011;25875;48.202;16.334;2024-01-27T13:12:34;6.70;;;3.10;;
40154;SDS011;25875;48.202;16.334;2024-01-27T13:15:02;6.32;;;3.15;;
40154;SDS011;25875;48.202;16.334;2024-01-27T13:17:29;5.57;;;3.58;;
40154;SDS011;25875;48.202;16.334;2024-01-27T13:19:55;6.28;;;3.30;;
40154;SDS011;25875;48.202;16.334;2024-01-27T13:22:22;6.40;;;3.05;;
40154;SDS011;25875;48.202;16.334;2024-01-27T13:24:50;8.23;;;3.30;;
40154;SDS011;25875;48.202;16.334;2024-01-27T13:27:16;5.95;;;3.47;;
40154;SDS011;25875;48.202;16.334;2024-01-27T13:29:44;9.38;;;3.95;;
40154;SDS011;25875;48.202;16.334;2024-01-27T13:32:11;5.10;;;3.08;;
40154;SDS011;25875;48.202;16.334;2024-01-27T13:34:38;5.97;;;3.75;;
40154;SDS011;25875;48.202;16.334;2024-01-27T13:37:05;8.38;;;3.88;;
40154;SDS011;25875;48.202;16.334;2024-01-27T13:39:31;6.47;;;4.00;;
40154;SDS011;25875;48.202;16.334;2024-01-27T13:41:58;5.47;;;3.08;;
40154;SDS011;25875;48.202;16.334;2024-01-27T13:44:25;6.35;;;3.58;;
40154;SDS011;25875;48.202;16.334;2024-01-27T13:46:53;5.63;;;4.00;;
40154;SDS011;25875;48.202;16.334;2024-01-27T13:49:25;7.78;;;3.83;;
40154;SDS011;25875;48.202;16.334;2024-01-27T13:51:52;6.30;;;3.55;;
40154;SDS011;25875;48.202;16.334;2024-01-27T13:54:18;5.50;;;3.08;;
40154;SDS011;25875;48.202;16.334;2024-01-27T13:56:45;6.10;;;3.17;;
40154;SDS011;25875;48.202;16.334;2024-01-27T13:59:11;7.38;;;3.45;;
40154;SDS011;25875;48.202;16.334;2024-01-27T14:01:38;8.18;;;3.75;;
40154;SDS011;25875;48.202;16.334;2024-01-27T14:04:06;6.57;;;3.40;;
40154;SDS011;25875;48.202;16.334;2024-01-27T14:06:33;5.75;;;3.17;;
40154;SDS011;25875;48.202;16.334;2024-01-27T14:09:01;4.07;;;2.80;;
40154;SDS011;25875;48.202;16.334;2024-01-27T14:11:28;6.57;;;3.40;;
40154;SDS011;25875;48.202;16.334;2024-01-27T14:13:54;4.75;;;3.10;;
40154;SDS011;25875;48.202;16.334;2024-01-27T14:16:21;6.95;;;3.55;;
40154;SDS011;25875;48.202;16.334;2024-01-27T14:18:48;5.60;;;3.13;;
40154;SDS011;25875;48.202;16.334;2024-01-27T14:21:16;5.25;;;3.33;;
40154;SDS011;25875;48.202;16.334;2024-01-27T14:23:43;5.50;;;3.25;;
40154;SDS011;25875;48.202;16.334;2024-01-27T14:26:09;8.48;;;3.72;;
40154;SDS011;25875;48.202;16.334;2024-01-27T14:28:39;7.68;;;3.53;;
40154;SDS011;25875;48.202;16.334;2024-01-27T14:31:06;5.75;;;3.20;;
40154;SDS011;25875;48.202;16.334;2024-01-27T14:33:33;4.40;;;3.22;;